createdAt,value
2023-04-14T00:03:13.944Z,41.77
2023-04-14T00:18:19.049Z,45.98
2023-04-14T00:33:24.035Z,43.58
2023-04-14T00:48:30.042Z,46.65
2023-04-14T01:03:37.178Z,50.23
2023-04-14T01:19:03.155Z,54.30
2023-04-14T01:34:11.721Z,55.15
2023-04-14T01:49:19.657Z,57.62
2023-04-14T02:04:27.365Z,77.67
2023-04-14T02:19:33.746Z,70.95
2023-04-14T02:34:42.634Z,87.97
2023-04-14T02:49:51.169Z,81.00
2023-04-14T03:04:58.638Z,93.23
2023-04-14T03:20:05.823Z,110.17
2023-04-14T03:35:13.595Z,107.00
2023-04-14T03:50:21.902Z,101.92
2023-04-14T04:05:29.348Z,119.00
2023-04-14T04:20:38.791Z,92.72
2023-04-14T04:35:44.465Z,98.70
2023-04-14T04:50:50.386Z,76.28
2023-04-14T05:05:55.714Z,83.72
2023-04-14T05:21:14.938Z,93.12
2023-04-14T05:36:19.971Z,99.05
2023-04-14T05:51:25.080Z,107.17
2023-04-14T06:06:31.755Z,99.72
2023-04-14T06:21:36.733Z,115.10
2023-04-14T06:36:41.738Z,135.85
2023-04-14T06:51:46.788Z,149.62
2023-04-14T07:06:52.079Z,156.12
2023-04-14T07:21:57.120Z,131.93
2023-04-14T07:37:02.375Z,137.47
2023-04-14T07:52:07.494Z,100.87
2023-04-14T08:07:12.550Z,90.55
2023-04-14T08:22:18.450Z,82.80
2023-04-14T08:37:23.495Z,64.05
2023-04-14T08:52:30.038Z,59.65
2023-04-14T09:07:35.411Z,48.65
2023-04-14T09:22:40.640Z,39.90
2023-04-14T09:37:48.656Z,35.52
2023-04-14T09:52:54.481Z,33.42
2023-04-14T10:08:04.526Z,31.48
2023-04-14T10:23:09.985Z,30.35
2023-04-14T10:38:15.171Z,25.12
2023-04-14T10:53:20.154Z,31.35
2023-04-14T11:08:31.040Z,6.78
2023-04-14T11:23:38.513Z,7.83
2023-04-14T11:38:45.786Z,9.48
2023-04-14T11:53:51.362Z,6.20
2023-04-14T12:08:58.305Z,5.00
2023-04-14T12:24:05.274Z,4.87
2023-04-14T12:39:10.431Z,7.42
2023-04-14T12:54:16.043Z,15.98
2023-04-14T13:09:21.094Z,6.03
2023-04-14T13:24:26.108Z,8.68
2023-04-14T13:39:31.090Z,2.95
2023-04-14T13:54:36.256Z,5.95
2023-04-14T14:09:44.404Z,6.22
2023-04-14T14:24:49.536Z,10.55
2023-04-14T14:39:54.522Z,24.70
2023-04-14T14:54:59.441Z,21.95
2023-04-14T15:10:05.519Z,64.95
2023-04-14T15:25:11.676Z,9.15
2023-04-14T15:40:16.651Z,19.48
2023-04-14T15:55:21.736Z,14.95
2023-04-14T16:10:27.731Z,20.10
2023-04-14T16:25:32.710Z,15.48
2023-04-14T16:40:38.411Z,18.98
2023-04-14T16:55:43.435Z,24.75
2023-04-14T17:10:48.637Z,14.23
2023-04-14T17:25:55.103Z,9.33
2023-04-14T17:41:00.924Z,9.20
2023-04-14T17:56:07.172Z,9.05
2023-04-14T18:11:12.720Z,12.13
2023-04-14T18:41:24.958Z,15.95
2023-04-14T18:56:30.161Z,24.55
2023-04-14T19:11:36.868Z,15.38
2023-04-14T19:26:41.820Z,21.45
2023-04-14T19:41:47.373Z,18.00
2023-04-14T19:56:52.288Z,16.30
2023-04-14T20:11:57.747Z,13.80
2023-04-14T20:27:03.484Z,9.85
2023-04-14T20:42:08.521Z,9.00
2023-04-14T20:57:14.049Z,16.07
2023-04-14T21:12:19.130Z,12.05
2023-04-14T21:27:24.205Z,9.13
2023-04-14T21:42:29.230Z,9.95
2023-04-14T21:57:45.004Z,8.80
2023-04-14T22:12:42.383Z,11.55
2023-04-14T22:27:47.736Z,14.55
2023-04-14T22:42:52.703Z,14.00
2023-04-14T22:57:57.811Z,12.93
2023-04-14T23:13:04.493Z,13.68
2023-04-14T23:28:10.085Z,14.40
2023-04-14T23:43:16.676Z,11.05
2023-04-14T23:58:26.680Z,15.58
